<?xml version="1.0" encoding="UTF-8" standalone="no" ?>
<gpx xmlns="http://www.topografix.com/GPX/1/1" xmlns:xsi="http://www.w3.org/2001/XMLSchema-instance" xsi:schemaLocation="http://www.topografix.com/GPX/1/1 http://www.topografix.com/GPX/1/1/gpx.xsd" version="1.1" creator="VisuGPX - https://www.visugpx.com">
  <metadata>
    <name>Robecq Cyclisme 11,41 km - nov. 06</name>
  </metadata>
  <trk>
    <name><![CDATA[Robecq Cyclisme 11,41 km - nov. 06]]></name>
    <trkseg>
      <trkpt lat="50.5955" lon="2.53802">
        <ele>21.06</ele>
        <time>2025-11-06T18:07:06.000Z</time>
      </trkpt>
      <trkpt lat="50.59556" lon="2.53799">
        <ele>21.08</ele>
        <time>2025-11-06T18:07:06.001Z</time>
      </trkpt>
      <trkpt lat="50.59542" lon="2.53836">
        <ele>21.09</ele>
        <time>2025-11-06T18:07:06.006Z</time>
      </trkpt>
      <trkpt lat="50.59528" lon="2.53872">
        <ele>21.07</ele>
        <time>2025-11-06T18:07:06.016Z</time>
      </trkpt>
      <trkpt lat="50.59514" lon="2.53909">
        <ele>21.03</ele>
        <time>2025-11-06T18:07:06.030Z</time>
      </trkpt>
      <trkpt lat="50.59499" lon="2.53945">
        <ele>20.96</ele>
        <time>2025-11-06T18:07:06.048Z</time>
      </trkpt>
      <trkpt lat="50.59485" lon="2.53982">
        <ele>20.64</ele>
        <time>2025-11-06T18:07:06.071Z</time>
      </trkpt>
      <trkpt lat="50.59471" lon="2.54019">
        <ele>20.56</ele>
        <time>2025-11-06T18:07:06.098Z</time>
      </trkpt>
      <trkpt lat="50.59457" lon="2.54055">
        <ele>20.45</ele>
        <time>2025-11-06T18:07:06.129Z</time>
      </trkpt>
      <trkpt lat="50.59434" lon="2.54084">
        <ele>20.12</ele>
        <time>2025-11-06T18:07:06.165Z</time>
      </trkpt>
      <trkpt lat="50.5941" lon="2.54113">
        <ele>20.17</ele>
        <time>2025-11-06T18:07:06.206Z</time>
      </trkpt>
      <trkpt lat="50.59386" lon="2.54142">
        <ele>20.19</ele>
        <time>2025-11-06T18:07:06.252Z</time>
      </trkpt>
      <trkpt lat="50.59363" lon="2.5417">
        <ele>19.83</ele>
        <time>2025-11-06T18:07:06.303Z</time>
      </trkpt>
      <trkpt lat="50.59348" lon="2.54198">
        <ele>19.27</ele>
        <time>2025-11-06T18:07:06.357Z</time>
      </trkpt>
      <trkpt lat="50.59341" lon="2.54222">
        <ele>18.78</ele>
        <time>2025-11-06T18:07:06.414Z</time>
      </trkpt>
      <trkpt lat="50.59335" lon="2.54246">
        <ele>18.31</ele>
        <time>2025-11-06T18:07:06.474Z</time>
      </trkpt>
      <trkpt lat="50.59329" lon="2.54269">
        <ele>17.94</ele>
        <time>2025-11-06T18:07:06.536Z</time>
      </trkpt>
      <trkpt lat="50.59334" lon="2.54302">
        <ele>17.55</ele>
        <time>2025-11-06T18:07:06.602Z</time>
      </trkpt>
      <trkpt lat="50.59339" lon="2.54335">
        <ele>17.28</ele>
        <time>2025-11-06T18:07:06.671Z</time>
      </trkpt>
      <trkpt lat="50.59344" lon="2.54368">
        <ele>17.11</ele>
        <time>2025-11-06T18:07:06.744Z</time>
      </trkpt>
      <trkpt lat="50.59344" lon="2.54398">
        <ele>17.08</ele>
        <time>2025-11-06T18:07:06.820Z</time>
      </trkpt>
      <trkpt lat="50.59345" lon="2.54428">
        <ele>17.1</ele>
        <time>2025-11-06T18:07:06.899Z</time>
      </trkpt>
      <trkpt lat="50.59345" lon="2.54458">
        <ele>17.16</ele>
        <time>2025-11-06T18:07:06.981Z</time>
      </trkpt>
      <trkpt lat="50.59346" lon="2.54488">
        <ele>17.3</ele>
        <time>2025-11-06T18:07:07.066Z</time>
      </trkpt>
      <trkpt lat="50.59344" lon="2.54519">
        <ele>17.41</ele>
        <time>2025-11-06T18:07:07.154Z</time>
      </trkpt>
      <trkpt lat="50.59341" lon="2.5455">
        <ele>17.55</ele>
        <time>2025-11-06T18:07:07.245Z</time>
      </trkpt>
      <trkpt lat="50.59333" lon="2.54598">
        <ele>17.5</ele>
        <time>2025-11-06T18:07:07.341Z</time>
      </trkpt>
      <trkpt lat="50.59325" lon="2.54646">
        <ele>17.36</ele>
        <time>2025-11-06T18:07:07.442Z</time>
      </trkpt>
      <trkpt lat="50.59317" lon="2.54694">
        <ele>17.41</ele>
        <time>2025-11-06T18:07:07.548Z</time>
      </trkpt>
      <trkpt lat="50.59309" lon="2.54741">
        <ele>17.57</ele>
        <time>2025-11-06T18:07:07.659Z</time>
      </trkpt>
      <trkpt lat="50.59308" lon="2.54779">
        <ele>17.79</ele>
        <time>2025-11-06T18:07:07.774Z</time>
      </trkpt>
      <trkpt lat="50.59307" lon="2.54816">
        <ele>17.99</ele>
        <time>2025-11-06T18:07:07.893Z</time>
      </trkpt>
      <trkpt lat="50.59306" lon="2.54857">
        <ele>18.03</ele>
        <time>2025-11-06T18:07:08.016Z</time>
      </trkpt>
      <trkpt lat="50.59304" lon="2.54898">
        <ele>18.09</ele>
        <time>2025-11-06T18:07:08.143Z</time>
      </trkpt>
      <trkpt lat="50.59303" lon="2.54939">
        <ele>18.13</ele>
        <time>2025-11-06T18:07:08.274Z</time>
      </trkpt>
      <trkpt lat="50.59301" lon="2.54985">
        <ele>18.33</ele>
        <time>2025-11-06T18:07:08.410Z</time>
      </trkpt>
      <trkpt lat="50.593" lon="2.5503">
        <ele>18.57</ele>
        <time>2025-11-06T18:07:08.551Z</time>
      </trkpt>
      <trkpt lat="50.59299" lon="2.55076">
        <ele>18.55</ele>
        <time>2025-11-06T18:07:08.696Z</time>
      </trkpt>
      <trkpt lat="50.59299" lon="2.55076">
        <ele>18.59</ele>
        <time>2025-11-06T18:07:08.841Z</time>
      </trkpt>
      <trkpt lat="50.59296" lon="2.55115">
        <ele>18.52</ele>
        <time>2025-11-06T18:07:08.990Z</time>
      </trkpt>
      <trkpt lat="50.59294" lon="2.55163">
        <ele>18.45</ele>
        <time>2025-11-06T18:07:09.144Z</time>
      </trkpt>
      <trkpt lat="50.59292" lon="2.55211">
        <ele>18.43</ele>
        <time>2025-11-06T18:07:09.303Z</time>
      </trkpt>
      <trkpt lat="50.5929" lon="2.55258">
        <ele>18.35</ele>
        <time>2025-11-06T18:07:09.467Z</time>
      </trkpt>
      <trkpt lat="50.59288" lon="2.55298">
        <ele>18.24</ele>
        <time>2025-11-06T18:07:09.635Z</time>
      </trkpt>
      <trkpt lat="50.59286" lon="2.55338">
        <ele>18.22</ele>
        <time>2025-11-06T18:07:09.807Z</time>
      </trkpt>
      <trkpt lat="50.59285" lon="2.55377">
        <ele>18.28</ele>
        <time>2025-11-06T18:07:09.983Z</time>
      </trkpt>
      <trkpt lat="50.59283" lon="2.55417">
        <ele>18.33</ele>
        <time>2025-11-06T18:07:10.163Z</time>
      </trkpt>
      <trkpt lat="50.59281" lon="2.55456">
        <ele>18.35</ele>
        <time>2025-11-06T18:07:10.347Z</time>
      </trkpt>
      <trkpt lat="50.59284" lon="2.55473">
        <ele>18.25</ele>
        <time>2025-11-06T18:07:10.533Z</time>
      </trkpt>
      <trkpt lat="50.59288" lon="2.55501">
        <ele>17.98</ele>
        <time>2025-11-06T18:07:10.722Z</time>
      </trkpt>
      <trkpt lat="50.59292" lon="2.55522">
        <ele>17.74</ele>
        <time>2025-11-06T18:07:10.913Z</time>
      </trkpt>
      <trkpt lat="50.59299" lon="2.55554">
        <ele>17.42</ele>
        <time>2025-11-06T18:07:11.108Z</time>
      </trkpt>
      <trkpt lat="50.59301" lon="2.55559">
        <ele>17.28</ele>
        <time>2025-11-06T18:07:11.303Z</time>
      </trkpt>
      <trkpt lat="50.59305" lon="2.55578">
        <ele>17.17</ele>
        <time>2025-11-06T18:07:11.500Z</time>
      </trkpt>
      <trkpt lat="50.59311" lon="2.55599">
        <ele>17.14</ele>
        <time>2025-11-06T18:07:11.700Z</time>
      </trkpt>
      <trkpt lat="50.59318" lon="2.55619">
        <ele>17.18</ele>
        <time>2025-11-06T18:07:11.902Z</time>
      </trkpt>
      <trkpt lat="50.59329" lon="2.5564">
        <ele>17.26</ele>
        <time>2025-11-06T18:07:12.107Z</time>
      </trkpt>
      <trkpt lat="50.59348" lon="2.55671">
        <ele>17.29</ele>
        <time>2025-11-06T18:07:12.316Z</time>
      </trkpt>
      <trkpt lat="50.59367" lon="2.55702">
        <ele>17.36</ele>
        <time>2025-11-06T18:07:12.530Z</time>
      </trkpt>
      <trkpt lat="50.5938" lon="2.55733">
        <ele>17.33</ele>
        <time>2025-11-06T18:07:12.747Z</time>
      </trkpt>
      <trkpt lat="50.59386" lon="2.55763">
        <ele>17.35</ele>
        <time>2025-11-06T18:07:12.968Z</time>
      </trkpt>
      <trkpt lat="50.59386" lon="2.55798">
        <ele>17.34</ele>
        <time>2025-11-06T18:07:13.192Z</time>
      </trkpt>
      <trkpt lat="50.59386" lon="2.55833">
        <ele>17.27</ele>
        <time>2025-11-06T18:07:13.420Z</time>
      </trkpt>
      <trkpt lat="50.59382" lon="2.55863">
        <ele>17.25</ele>
        <time>2025-11-06T18:07:13.651Z</time>
      </trkpt>
      <trkpt lat="50.59369" lon="2.55903">
        <ele>17.47</ele>
        <time>2025-11-06T18:07:13.887Z</time>
      </trkpt>
      <trkpt lat="50.59356" lon="2.55943">
        <ele>17.56</ele>
        <time>2025-11-06T18:07:14.127Z</time>
      </trkpt>
      <trkpt lat="50.59346" lon="2.55971">
        <ele>17.63</ele>
        <time>2025-11-06T18:07:14.370Z</time>
      </trkpt>
      <trkpt lat="50.59335" lon="2.55999">
        <ele>17.64</ele>
        <time>2025-11-06T18:07:14.617Z</time>
      </trkpt>
      <trkpt lat="50.59324" lon="2.56019">
        <ele>17.64</ele>
        <time>2025-11-06T18:07:14.866Z</time>
      </trkpt>
      <trkpt lat="50.59314" lon="2.56039">
        <ele>17.74</ele>
        <time>2025-11-06T18:07:15.118Z</time>
      </trkpt>
      <trkpt lat="50.59314" lon="2.56039">
        <ele>17.78</ele>
        <time>2025-11-06T18:07:15.370Z</time>
      </trkpt>
      <trkpt lat="50.59318" lon="2.5605">
        <ele>17.83</ele>
        <time>2025-11-06T18:07:15.623Z</time>
      </trkpt>
      <trkpt lat="50.59322" lon="2.56091">
        <ele>17.87</ele>
        <time>2025-11-06T18:07:15.881Z</time>
      </trkpt>
      <trkpt lat="50.59322" lon="2.56091">
        <ele>17.9</ele>
        <time>2025-11-06T18:07:16.139Z</time>
      </trkpt>
      <trkpt lat="50.59326" lon="2.56125">
        <ele>17.85</ele>
        <time>2025-11-06T18:07:16.400Z</time>
      </trkpt>
      <trkpt lat="50.59333" lon="2.56145">
        <ele>17.85</ele>
        <time>2025-11-06T18:07:16.663Z</time>
      </trkpt>
      <trkpt lat="50.59346" lon="2.56168">
        <ele>17.95</ele>
        <time>2025-11-06T18:07:16.930Z</time>
      </trkpt>
      <trkpt lat="50.59358" lon="2.56187">
        <ele>18</ele>
        <time>2025-11-06T18:07:17.199Z</time>
      </trkpt>
      <trkpt lat="50.59369" lon="2.56207">
        <ele>18.03</ele>
        <time>2025-11-06T18:07:17.471Z</time>
      </trkpt>
      <trkpt lat="50.59384" lon="2.5622">
        <ele>18.05</ele>
        <time>2025-11-06T18:07:17.746Z</time>
      </trkpt>
      <trkpt lat="50.59402" lon="2.56235">
        <ele>18.14</ele>
        <time>2025-11-06T18:07:18.024Z</time>
      </trkpt>
      <trkpt lat="50.59412" lon="2.56239">
        <ele>18.25</ele>
        <time>2025-11-06T18:07:18.304Z</time>
      </trkpt>
      <trkpt lat="50.59412" lon="2.56239">
        <ele>18.34</ele>
        <time>2025-11-06T18:07:18.584Z</time>
      </trkpt>
      <trkpt lat="50.5943" lon="2.56242">
        <ele>18.49</ele>
        <time>2025-11-06T18:07:18.867Z</time>
      </trkpt>
      <trkpt lat="50.59449" lon="2.56245">
        <ele>18.62</ele>
        <time>2025-11-06T18:07:19.153Z</time>
      </trkpt>
      <trkpt lat="50.59472" lon="2.56256">
        <ele>18.68</ele>
        <time>2025-11-06T18:07:19.442Z</time>
      </trkpt>
      <trkpt lat="50.59496" lon="2.56267">
        <ele>18.78</ele>
        <time>2025-11-06T18:07:19.735Z</time>
      </trkpt>
      <trkpt lat="50.5952" lon="2.56283">
        <ele>18.92</ele>
        <time>2025-11-06T18:07:20.033Z</time>
      </trkpt>
      <trkpt lat="50.59543" lon="2.56299">
        <ele>19.04</ele>
        <time>2025-11-06T18:07:20.335Z</time>
      </trkpt>
      <trkpt lat="50.59558" lon="2.56323">
        <ele>19.11</ele>
        <time>2025-11-06T18:07:20.640Z</time>
      </trkpt>
      <trkpt lat="50.59572" lon="2.56312">
        <ele>19.13</ele>
        <time>2025-11-06T18:07:20.948Z</time>
      </trkpt>
      <trkpt lat="50.59595" lon="2.56293">
        <ele>19.11</ele>
        <time>2025-11-06T18:07:21.260Z</time>
      </trkpt>
      <trkpt lat="50.59619" lon="2.56275">
        <ele>19.09</ele>
        <time>2025-11-06T18:07:21.576Z</time>
      </trkpt>
      <trkpt lat="50.59642" lon="2.56256">
        <ele>19.04</ele>
        <time>2025-11-06T18:07:21.896Z</time>
      </trkpt>
      <trkpt lat="50.59657" lon="2.56245">
        <ele>18.91</ele>
        <time>2025-11-06T18:07:22.219Z</time>
      </trkpt>
      <trkpt lat="50.5967" lon="2.5628">
        <ele>18.77</ele>
        <time>2025-11-06T18:07:22.546Z</time>
      </trkpt>
      <trkpt lat="50.59684" lon="2.56314">
        <ele>18.71</ele>
        <time>2025-11-06T18:07:22.877Z</time>
      </trkpt>
      <trkpt lat="50.59698" lon="2.56348">
        <ele>18.65</ele>
        <time>2025-11-06T18:07:23.212Z</time>
      </trkpt>
      <trkpt lat="50.59711" lon="2.56385">
        <ele>18.58</ele>
        <time>2025-11-06T18:07:23.551Z</time>
      </trkpt>
      <trkpt lat="50.59719" lon="2.56426">
        <ele>18.5</ele>
        <time>2025-11-06T18:07:23.895Z</time>
      </trkpt>
      <trkpt lat="50.59723" lon="2.56443">
        <ele>18.55</ele>
        <time>2025-11-06T18:07:24.241Z</time>
      </trkpt>
      <trkpt lat="50.59726" lon="2.56454">
        <ele>18.57</ele>
        <time>2025-11-06T18:07:24.588Z</time>
      </trkpt>
      <trkpt lat="50.59737" lon="2.56491">
        <ele>18.63</ele>
        <time>2025-11-06T18:07:24.939Z</time>
      </trkpt>
      <trkpt lat="50.59749" lon="2.56529">
        <ele>18.68</ele>
        <time>2025-11-06T18:07:25.294Z</time>
      </trkpt>
      <trkpt lat="50.59762" lon="2.56564">
        <ele>18.71</ele>
        <time>2025-11-06T18:07:25.653Z</time>
      </trkpt>
      <trkpt lat="50.59775" lon="2.56599">
        <ele>18.72</ele>
        <time>2025-11-06T18:07:26.017Z</time>
      </trkpt>
      <trkpt lat="50.59786" lon="2.56621">
        <ele>18.76</ele>
        <time>2025-11-06T18:07:26.383Z</time>
      </trkpt>
      <trkpt lat="50.59796" lon="2.56642">
        <ele>18.76</ele>
        <time>2025-11-06T18:07:26.752Z</time>
      </trkpt>
      <trkpt lat="50.59817" lon="2.5668">
        <ele>18.79</ele>
        <time>2025-11-06T18:07:27.126Z</time>
      </trkpt>
      <trkpt lat="50.59837" lon="2.56717">
        <ele>18.75</ele>
        <time>2025-11-06T18:07:27.505Z</time>
      </trkpt>
      <trkpt lat="50.59851" lon="2.5676">
        <ele>18.8</ele>
        <time>2025-11-06T18:07:27.889Z</time>
      </trkpt>
      <trkpt lat="50.59865" lon="2.56803">
        <ele>18.9</ele>
        <time>2025-11-06T18:07:28.278Z</time>
      </trkpt>
      <trkpt lat="50.59871" lon="2.56827">
        <ele>18.87</ele>
        <time>2025-11-06T18:07:28.670Z</time>
      </trkpt>
      <trkpt lat="50.59878" lon="2.5685">
        <ele>18.81</ele>
        <time>2025-11-06T18:07:29.064Z</time>
      </trkpt>
      <trkpt lat="50.59893" lon="2.56887">
        <ele>18.71</ele>
        <time>2025-11-06T18:07:29.463Z</time>
      </trkpt>
      <trkpt lat="50.59901" lon="2.56906">
        <ele>18.59</ele>
        <time>2025-11-06T18:07:29.864Z</time>
      </trkpt>
      <trkpt lat="50.59915" lon="2.56937">
        <ele>18.47</ele>
        <time>2025-11-06T18:07:30.269Z</time>
      </trkpt>
      <trkpt lat="50.59929" lon="2.56968">
        <ele>18.38</ele>
        <time>2025-11-06T18:07:30.678Z</time>
      </trkpt>
      <trkpt lat="50.59942" lon="2.56988">
        <ele>18.31</ele>
        <time>2025-11-06T18:07:31.090Z</time>
      </trkpt>
      <trkpt lat="50.59962" lon="2.57008">
        <ele>18.2</ele>
        <time>2025-11-06T18:07:31.506Z</time>
      </trkpt>
      <trkpt lat="50.59982" lon="2.57028">
        <ele>18.02</ele>
        <time>2025-11-06T18:07:31.925Z</time>
      </trkpt>
      <trkpt lat="50.59992" lon="2.57037">
        <ele>17.76</ele>
        <time>2025-11-06T18:07:32.346Z</time>
      </trkpt>
      <trkpt lat="50.60013" lon="2.57065">
        <ele>17.61</ele>
        <time>2025-11-06T18:07:32.772Z</time>
      </trkpt>
      <trkpt lat="50.60039" lon="2.5704">
        <ele>17.49</ele>
        <time>2025-11-06T18:07:33.202Z</time>
      </trkpt>
      <trkpt lat="50.60065" lon="2.57015">
        <ele>17.45</ele>
        <time>2025-11-06T18:07:33.637Z</time>
      </trkpt>
      <trkpt lat="50.60091" lon="2.5699">
        <ele>17.4</ele>
        <time>2025-11-06T18:07:34.077Z</time>
      </trkpt>
      <trkpt lat="50.60117" lon="2.56964">
        <ele>17.25</ele>
        <time>2025-11-06T18:07:34.522Z</time>
      </trkpt>
      <trkpt lat="50.60143" lon="2.56939">
        <ele>17.08</ele>
        <time>2025-11-06T18:07:34.972Z</time>
      </trkpt>
      <trkpt lat="50.6017" lon="2.56914">
        <ele>16.91</ele>
        <time>2025-11-06T18:07:35.427Z</time>
      </trkpt>
      <trkpt lat="50.60195" lon="2.56889">
        <ele>16.84</ele>
        <time>2025-11-06T18:07:35.887Z</time>
      </trkpt>
      <trkpt lat="50.60221" lon="2.56871">
        <ele>16.85</ele>
        <time>2025-11-06T18:07:36.351Z</time>
      </trkpt>
      <trkpt lat="50.60247" lon="2.56853">
        <ele>16.78</ele>
        <time>2025-11-06T18:07:36.820Z</time>
      </trkpt>
      <trkpt lat="50.60276" lon="2.56841">
        <ele>16.74</ele>
        <time>2025-11-06T18:07:37.294Z</time>
      </trkpt>
      <trkpt lat="50.60304" lon="2.5683">
        <ele>16.7</ele>
        <time>2025-11-06T18:07:37.772Z</time>
      </trkpt>
      <trkpt lat="50.60333" lon="2.56818">
        <ele>16.67</ele>
        <time>2025-11-06T18:07:38.255Z</time>
      </trkpt>
      <trkpt lat="50.60361" lon="2.56807">
        <ele>16.63</ele>
        <time>2025-11-06T18:07:38.743Z</time>
      </trkpt>
      <trkpt lat="50.6039" lon="2.56795">
        <ele>16.57</ele>
        <time>2025-11-06T18:07:39.236Z</time>
      </trkpt>
      <trkpt lat="50.60419" lon="2.56784">
        <ele>16.58</ele>
        <time>2025-11-06T18:07:39.733Z</time>
      </trkpt>
      <trkpt lat="50.60444" lon="2.56783">
        <ele>16.57</ele>
        <time>2025-11-06T18:07:40.234Z</time>
      </trkpt>
      <trkpt lat="50.6047" lon="2.56781">
        <ele>16.48</ele>
        <time>2025-11-06T18:07:40.740Z</time>
      </trkpt>
      <trkpt lat="50.60496" lon="2.5678">
        <ele>16.52</ele>
        <time>2025-11-06T18:07:41.250Z</time>
      </trkpt>
      <trkpt lat="50.60524" lon="2.56773">
        <ele>16.53</ele>
        <time>2025-11-06T18:07:41.764Z</time>
      </trkpt>
      <trkpt lat="50.60552" lon="2.56754">
        <ele>16.52</ele>
        <time>2025-11-06T18:07:42.283Z</time>
      </trkpt>
      <trkpt lat="50.60568" lon="2.56747">
        <ele>16.5</ele>
        <time>2025-11-06T18:07:42.805Z</time>
      </trkpt>
      <trkpt lat="50.60584" lon="2.56741">
        <ele>16.45</ele>
        <time>2025-11-06T18:07:43.329Z</time>
      </trkpt>
      <trkpt lat="50.60586" lon="2.56732">
        <ele>16.46</ele>
        <time>2025-11-06T18:07:43.854Z</time>
      </trkpt>
      <trkpt lat="50.60583" lon="2.56683">
        <ele>16.55</ele>
        <time>2025-11-06T18:07:44.384Z</time>
      </trkpt>
      <trkpt lat="50.6058" lon="2.56634">
        <ele>16.57</ele>
        <time>2025-11-06T18:07:44.919Z</time>
      </trkpt>
      <trkpt lat="50.60579" lon="2.56607">
        <ele>16.63</ele>
        <time>2025-11-06T18:07:45.457Z</time>
      </trkpt>
      <trkpt lat="50.60577" lon="2.5658">
        <ele>16.66</ele>
        <time>2025-11-06T18:07:45.998Z</time>
      </trkpt>
      <trkpt lat="50.6058" lon="2.56565">
        <ele>16.7</ele>
        <time>2025-11-06T18:07:46.540Z</time>
      </trkpt>
      <trkpt lat="50.60584" lon="2.56557">
        <ele>16.75</ele>
        <time>2025-11-06T18:07:47.084Z</time>
      </trkpt>
      <trkpt lat="50.6061" lon="2.56543">
        <ele>16.81</ele>
        <time>2025-11-06T18:07:47.632Z</time>
      </trkpt>
      <trkpt lat="50.60635" lon="2.5653">
        <ele>16.87</ele>
        <time>2025-11-06T18:07:48.184Z</time>
      </trkpt>
      <trkpt lat="50.60661" lon="2.56517">
        <ele>16.89</ele>
        <time>2025-11-06T18:07:48.741Z</time>
      </trkpt>
      <trkpt lat="50.60687" lon="2.56503">
        <ele>16.95</ele>
        <time>2025-11-06T18:07:49.302Z</time>
      </trkpt>
      <trkpt lat="50.60713" lon="2.5649">
        <ele>17.06</ele>
        <time>2025-11-06T18:07:49.867Z</time>
      </trkpt>
      <trkpt lat="50.6073" lon="2.56484">
        <ele>17.24</ele>
        <time>2025-11-06T18:07:50.435Z</time>
      </trkpt>
      <trkpt lat="50.6076" lon="2.56492">
        <ele>17.38</ele>
        <time>2025-11-06T18:07:51.008Z</time>
      </trkpt>
      <trkpt lat="50.60785" lon="2.56479">
        <ele>17.5</ele>
        <time>2025-11-06T18:07:51.585Z</time>
      </trkpt>
      <trkpt lat="50.6081" lon="2.56466">
        <ele>17.64</ele>
        <time>2025-11-06T18:07:52.166Z</time>
      </trkpt>
      <trkpt lat="50.60834" lon="2.56453">
        <ele>17.78</ele>
        <time>2025-11-06T18:07:52.752Z</time>
      </trkpt>
      <trkpt lat="50.60859" lon="2.56441">
        <ele>17.94</ele>
        <time>2025-11-06T18:07:53.342Z</time>
      </trkpt>
      <trkpt lat="50.60884" lon="2.56428">
        <ele>18.15</ele>
        <time>2025-11-06T18:07:53.936Z</time>
      </trkpt>
      <trkpt lat="50.60884" lon="2.56428">
        <ele>18.23</ele>
        <time>2025-11-06T18:07:54.530Z</time>
      </trkpt>
      <trkpt lat="50.6091" lon="2.56425">
        <ele>18.33</ele>
        <time>2025-11-06T18:07:55.128Z</time>
      </trkpt>
      <trkpt lat="50.60936" lon="2.56421">
        <ele>18.32</ele>
        <time>2025-11-06T18:07:55.730Z</time>
      </trkpt>
      <trkpt lat="50.60959" lon="2.56403">
        <ele>18.29</ele>
        <time>2025-11-06T18:07:56.337Z</time>
      </trkpt>
      <trkpt lat="50.60983" lon="2.56385">
        <ele>18.21</ele>
        <time>2025-11-06T18:07:56.948Z</time>
      </trkpt>
      <trkpt lat="50.61005" lon="2.56375">
        <ele>18.07</ele>
        <time>2025-11-06T18:07:57.562Z</time>
      </trkpt>
      <trkpt lat="50.61026" lon="2.56366">
        <ele>17.97</ele>
        <time>2025-11-06T18:07:58.180Z</time>
      </trkpt>
      <trkpt lat="50.61048" lon="2.56356">
        <ele>17.94</ele>
        <time>2025-11-06T18:07:58.802Z</time>
      </trkpt>
      <trkpt lat="50.61048" lon="2.56356">
        <ele>17.86</ele>
        <time>2025-11-06T18:07:59.424Z</time>
      </trkpt>
      <trkpt lat="50.61075" lon="2.56344">
        <ele>17.75</ele>
        <time>2025-11-06T18:08:00.050Z</time>
      </trkpt>
      <trkpt lat="50.61075" lon="2.56344">
        <ele>17.65</ele>
        <time>2025-11-06T18:08:00.676Z</time>
      </trkpt>
      <trkpt lat="50.6108" lon="2.56344">
        <ele>17.55</ele>
        <time>2025-11-06T18:08:01.303Z</time>
      </trkpt>
      <trkpt lat="50.61105" lon="2.5634">
        <ele>17.44</ele>
        <time>2025-11-06T18:08:01.934Z</time>
      </trkpt>
      <trkpt lat="50.6112" lon="2.56344">
        <ele>17.36</ele>
        <time>2025-11-06T18:08:02.567Z</time>
      </trkpt>
      <trkpt lat="50.61148" lon="2.56361">
        <ele>17.28</ele>
        <time>2025-11-06T18:08:03.205Z</time>
      </trkpt>
      <trkpt lat="50.61176" lon="2.56378">
        <ele>17.26</ele>
        <time>2025-11-06T18:08:03.848Z</time>
      </trkpt>
      <trkpt lat="50.61187" lon="2.56378">
        <ele>17.19</ele>
        <time>2025-11-06T18:08:04.493Z</time>
      </trkpt>
      <trkpt lat="50.61213" lon="2.56369">
        <ele>17.14</ele>
        <time>2025-11-06T18:08:05.142Z</time>
      </trkpt>
      <trkpt lat="50.61239" lon="2.56359">
        <ele>17.08</ele>
        <time>2025-11-06T18:08:05.795Z</time>
      </trkpt>
      <trkpt lat="50.61266" lon="2.56349">
        <ele>17.04</ele>
        <time>2025-11-06T18:08:06.453Z</time>
      </trkpt>
      <trkpt lat="50.61292" lon="2.5634">
        <ele>16.96</ele>
        <time>2025-11-06T18:08:07.115Z</time>
      </trkpt>
      <trkpt lat="50.6132" lon="2.56326">
        <ele>16.95</ele>
        <time>2025-11-06T18:08:07.782Z</time>
      </trkpt>
      <trkpt lat="50.61348" lon="2.56312">
        <ele>16.92</ele>
        <time>2025-11-06T18:08:08.453Z</time>
      </trkpt>
      <trkpt lat="50.61376" lon="2.56298">
        <ele>16.88</ele>
        <time>2025-11-06T18:08:09.129Z</time>
      </trkpt>
      <trkpt lat="50.61404" lon="2.56284">
        <ele>16.99</ele>
        <time>2025-11-06T18:08:09.810Z</time>
      </trkpt>
      <trkpt lat="50.61433" lon="2.5627">
        <ele>17.02</ele>
        <time>2025-11-06T18:08:10.496Z</time>
      </trkpt>
      <trkpt lat="50.61461" lon="2.56256">
        <ele>17.07</ele>
        <time>2025-11-06T18:08:11.186Z</time>
      </trkpt>
      <trkpt lat="50.61489" lon="2.56242">
        <ele>17.19</ele>
        <time>2025-11-06T18:08:11.881Z</time>
      </trkpt>
      <trkpt lat="50.61517" lon="2.56228">
        <ele>17.26</ele>
        <time>2025-11-06T18:08:12.581Z</time>
      </trkpt>
      <trkpt lat="50.61545" lon="2.56214">
        <ele>17.31</ele>
        <time>2025-11-06T18:08:13.285Z</time>
      </trkpt>
      <trkpt lat="50.61573" lon="2.562">
        <ele>17.37</ele>
        <time>2025-11-06T18:08:13.994Z</time>
      </trkpt>
      <trkpt lat="50.61588" lon="2.56196">
        <ele>17.43</ele>
        <time>2025-11-06T18:08:14.706Z</time>
      </trkpt>
      <trkpt lat="50.61599" lon="2.56198">
        <ele>17.48</ele>
        <time>2025-11-06T18:08:15.419Z</time>
      </trkpt>
      <trkpt lat="50.61614" lon="2.56228">
        <ele>17.46</ele>
        <time>2025-11-06T18:08:16.136Z</time>
      </trkpt>
      <trkpt lat="50.61625" lon="2.56235">
        <ele>17.51</ele>
        <time>2025-11-06T18:08:16.855Z</time>
      </trkpt>
      <trkpt lat="50.61637" lon="2.56233">
        <ele>17.55</ele>
        <time>2025-11-06T18:08:17.576Z</time>
      </trkpt>
      <trkpt lat="50.61666" lon="2.56214">
        <ele>17.62</ele>
        <time>2025-11-06T18:08:18.302Z</time>
      </trkpt>
      <trkpt lat="50.61695" lon="2.56196">
        <ele>17.77</ele>
        <time>2025-11-06T18:08:19.033Z</time>
      </trkpt>
      <trkpt lat="50.61722" lon="2.5617">
        <ele>17.95</ele>
        <time>2025-11-06T18:08:19.769Z</time>
      </trkpt>
      <trkpt lat="50.61749" lon="2.56144">
        <ele>17.96</ele>
        <time>2025-11-06T18:08:20.510Z</time>
      </trkpt>
      <trkpt lat="50.61776" lon="2.56119">
        <ele>18.14</ele>
        <time>2025-11-06T18:08:21.256Z</time>
      </trkpt>
      <trkpt lat="50.61803" lon="2.56093">
        <ele>18.29</ele>
        <time>2025-11-06T18:08:22.007Z</time>
      </trkpt>
      <trkpt lat="50.61803" lon="2.56093">
        <ele>18.31</ele>
        <time>2025-11-06T18:08:22.758Z</time>
      </trkpt>
      <trkpt lat="50.61816" lon="2.5608">
        <ele>18.29</ele>
        <time>2025-11-06T18:08:23.512Z</time>
      </trkpt>
      <trkpt lat="50.61837" lon="2.56063">
        <ele>18.16</ele>
        <time>2025-11-06T18:08:24.270Z</time>
      </trkpt>
      <trkpt lat="50.61858" lon="2.56046">
        <ele>18.09</ele>
        <time>2025-11-06T18:08:25.031Z</time>
      </trkpt>
      <trkpt lat="50.61877" lon="2.56025">
        <ele>18.02</ele>
        <time>2025-11-06T18:08:25.796Z</time>
      </trkpt>
      <trkpt lat="50.6188" lon="2.56022">
        <ele>17.84</ele>
        <time>2025-11-06T18:08:26.562Z</time>
      </trkpt>
      <trkpt lat="50.61898" lon="2.56007">
        <ele>17.74</ele>
        <time>2025-11-06T18:08:27.331Z</time>
      </trkpt>
      <trkpt lat="50.61916" lon="2.55992">
        <ele>17.62</ele>
        <time>2025-11-06T18:08:28.103Z</time>
      </trkpt>
      <trkpt lat="50.61942" lon="2.55975">
        <ele>17.45</ele>
        <time>2025-11-06T18:08:28.880Z</time>
      </trkpt>
      <trkpt lat="50.61962" lon="2.55966">
        <ele>17.35</ele>
        <time>2025-11-06T18:08:29.660Z</time>
      </trkpt>
      <trkpt lat="50.61983" lon="2.55958">
        <ele>17.26</ele>
        <time>2025-11-06T18:08:30.444Z</time>
      </trkpt>
      <trkpt lat="50.61994" lon="2.5596">
        <ele>17.19</ele>
        <time>2025-11-06T18:08:31.229Z</time>
      </trkpt>
      <trkpt lat="50.62021" lon="2.55949">
        <ele>17.13</ele>
        <time>2025-11-06T18:08:32.019Z</time>
      </trkpt>
      <trkpt lat="50.62043" lon="2.55934">
        <ele>17.03</ele>
        <time>2025-11-06T18:08:32.813Z</time>
      </trkpt>
      <trkpt lat="50.62069" lon="2.55924">
        <ele>16.92</ele>
        <time>2025-11-06T18:08:33.611Z</time>
      </trkpt>
      <trkpt lat="50.62092" lon="2.55913">
        <ele>16.97</ele>
        <time>2025-11-06T18:08:34.413Z</time>
      </trkpt>
      <trkpt lat="50.62112" lon="2.55904">
        <ele>17.08</ele>
        <time>2025-11-06T18:08:35.218Z</time>
      </trkpt>
      <trkpt lat="50.62131" lon="2.55896">
        <ele>17.21</ele>
        <time>2025-11-06T18:08:36.026Z</time>
      </trkpt>
      <trkpt lat="50.62131" lon="2.55896">
        <ele>17.27</ele>
        <time>2025-11-06T18:08:36.834Z</time>
      </trkpt>
      <trkpt lat="50.62153" lon="2.55895">
        <ele>17.41</ele>
        <time>2025-11-06T18:08:37.646Z</time>
      </trkpt>
      <trkpt lat="50.62176" lon="2.55893">
        <ele>17.5</ele>
        <time>2025-11-06T18:08:38.461Z</time>
      </trkpt>
      <trkpt lat="50.62197" lon="2.55886">
        <ele>17.54</ele>
        <time>2025-11-06T18:08:39.280Z</time>
      </trkpt>
      <trkpt lat="50.62219" lon="2.55879">
        <ele>17.5</ele>
        <time>2025-11-06T18:08:40.102Z</time>
      </trkpt>
      <trkpt lat="50.6224" lon="2.55872">
        <ele>17.49</ele>
        <time>2025-11-06T18:08:40.928Z</time>
      </trkpt>
      <trkpt lat="50.62253" lon="2.55863">
        <ele>17.48</ele>
        <time>2025-11-06T18:08:41.756Z</time>
      </trkpt>
      <trkpt lat="50.62264" lon="2.55857">
        <ele>17.43</ele>
        <time>2025-11-06T18:08:42.586Z</time>
      </trkpt>
      <trkpt lat="50.62287" lon="2.55841">
        <ele>17.35</ele>
        <time>2025-11-06T18:08:43.420Z</time>
      </trkpt>
      <trkpt lat="50.6231" lon="2.55824">
        <ele>17.31</ele>
        <time>2025-11-06T18:08:44.258Z</time>
      </trkpt>
      <trkpt lat="50.62333" lon="2.55808">
        <ele>17.27</ele>
        <time>2025-11-06T18:08:45.100Z</time>
      </trkpt>
      <trkpt lat="50.62359" lon="2.5579">
        <ele>17.19</ele>
        <time>2025-11-06T18:08:45.947Z</time>
      </trkpt>
      <trkpt lat="50.62385" lon="2.55772">
        <ele>17.16</ele>
        <time>2025-11-06T18:08:46.798Z</time>
      </trkpt>
      <trkpt lat="50.6241" lon="2.55754">
        <ele>17.09</ele>
        <time>2025-11-06T18:08:47.654Z</time>
      </trkpt>
      <trkpt lat="50.62438" lon="2.55734">
        <ele>17.01</ele>
        <time>2025-11-06T18:08:48.515Z</time>
      </trkpt>
      <trkpt lat="50.62466" lon="2.55715">
        <ele>17.08</ele>
        <time>2025-11-06T18:08:49.380Z</time>
      </trkpt>
      <trkpt lat="50.62489" lon="2.55705">
        <ele>17.03</ele>
        <time>2025-11-06T18:08:50.249Z</time>
      </trkpt>
      <trkpt lat="50.62511" lon="2.55695">
        <ele>16.93</ele>
        <time>2025-11-06T18:08:51.122Z</time>
      </trkpt>
      <trkpt lat="50.62534" lon="2.55685">
        <ele>16.83</ele>
        <time>2025-11-06T18:08:51.999Z</time>
      </trkpt>
      <trkpt lat="50.62562" lon="2.55672">
        <ele>16.79</ele>
        <time>2025-11-06T18:08:52.880Z</time>
      </trkpt>
      <trkpt lat="50.62589" lon="2.5566">
        <ele>16.84</ele>
        <time>2025-11-06T18:08:53.766Z</time>
      </trkpt>
      <trkpt lat="50.62616" lon="2.55647">
        <ele>16.82</ele>
        <time>2025-11-06T18:08:54.657Z</time>
      </trkpt>
      <trkpt lat="50.62602" lon="2.55614">
        <ele>16.74</ele>
        <time>2025-11-06T18:08:55.552Z</time>
      </trkpt>
      <trkpt lat="50.62589" lon="2.55581">
        <ele>16.7</ele>
        <time>2025-11-06T18:08:56.451Z</time>
      </trkpt>
      <trkpt lat="50.62575" lon="2.55548">
        <ele>16.62</ele>
        <time>2025-11-06T18:08:57.354Z</time>
      </trkpt>
      <trkpt lat="50.62569" lon="2.55507">
        <ele>16.44</ele>
        <time>2025-11-06T18:08:58.261Z</time>
      </trkpt>
      <trkpt lat="50.62568" lon="2.5548">
        <ele>16.27</ele>
        <time>2025-11-06T18:08:59.171Z</time>
      </trkpt>
      <trkpt lat="50.62567" lon="2.55454">
        <ele>16.11</ele>
        <time>2025-11-06T18:09:00.083Z</time>
      </trkpt>
      <trkpt lat="50.62567" lon="2.55419">
        <ele>16.09</ele>
        <time>2025-11-06T18:09:00.999Z</time>
      </trkpt>
      <trkpt lat="50.62568" lon="2.55384">
        <ele>16.12</ele>
        <time>2025-11-06T18:09:01.918Z</time>
      </trkpt>
      <trkpt lat="50.62568" lon="2.55384">
        <ele>16.06</ele>
        <time>2025-11-06T18:09:02.837Z</time>
      </trkpt>
      <trkpt lat="50.62569" lon="2.55342">
        <ele>16.03</ele>
        <time>2025-11-06T18:09:03.761Z</time>
      </trkpt>
      <trkpt lat="50.6257" lon="2.553">
        <ele>15.98</ele>
        <time>2025-11-06T18:09:04.689Z</time>
      </trkpt>
      <trkpt lat="50.62571" lon="2.55258">
        <ele>15.94</ele>
        <time>2025-11-06T18:09:05.621Z</time>
      </trkpt>
      <trkpt lat="50.62573" lon="2.55218">
        <ele>15.94</ele>
        <time>2025-11-06T18:09:06.557Z</time>
      </trkpt>
      <trkpt lat="50.62573" lon="2.55188">
        <ele>15.99</ele>
        <time>2025-11-06T18:09:07.496Z</time>
      </trkpt>
      <trkpt lat="50.62574" lon="2.55154">
        <ele>16.15</ele>
        <time>2025-11-06T18:09:08.439Z</time>
      </trkpt>
      <trkpt lat="50.62576" lon="2.5512">
        <ele>16.28</ele>
        <time>2025-11-06T18:09:09.385Z</time>
      </trkpt>
      <trkpt lat="50.62577" lon="2.55087">
        <ele>16.3</ele>
        <time>2025-11-06T18:09:10.335Z</time>
      </trkpt>
      <trkpt lat="50.62579" lon="2.55059">
        <ele>16.36</ele>
        <time>2025-11-06T18:09:11.288Z</time>
      </trkpt>
      <trkpt lat="50.62579" lon="2.55019">
        <ele>16.64</ele>
        <time>2025-11-06T18:09:12.245Z</time>
      </trkpt>
      <trkpt lat="50.62579" lon="2.54979">
        <ele>16.98</ele>
        <time>2025-11-06T18:09:13.206Z</time>
      </trkpt>
      <trkpt lat="50.62567" lon="2.54962">
        <ele>17.36</ele>
        <time>2025-11-06T18:09:14.169Z</time>
      </trkpt>
      <trkpt lat="50.62556" lon="2.54956">
        <ele>17.74</ele>
        <time>2025-11-06T18:09:15.134Z</time>
      </trkpt>
      <trkpt lat="50.62541" lon="2.54939">
        <ele>18.13</ele>
        <time>2025-11-06T18:09:16.102Z</time>
      </trkpt>
      <trkpt lat="50.62521" lon="2.54914">
        <ele>18.54</ele>
        <time>2025-11-06T18:09:17.074Z</time>
      </trkpt>
      <trkpt lat="50.62502" lon="2.54889">
        <ele>19</ele>
        <time>2025-11-06T18:09:18.050Z</time>
      </trkpt>
      <trkpt lat="50.62496" lon="2.54879">
        <ele>19.34</ele>
        <time>2025-11-06T18:09:19.028Z</time>
      </trkpt>
      <trkpt lat="50.62479" lon="2.54872">
        <ele>19.63</ele>
        <time>2025-11-06T18:09:20.008Z</time>
      </trkpt>
      <trkpt lat="50.62481" lon="2.54842">
        <ele>19.89</ele>
        <time>2025-11-06T18:09:20.992Z</time>
      </trkpt>
      <trkpt lat="50.62483" lon="2.54812">
        <ele>20.07</ele>
        <time>2025-11-06T18:09:21.979Z</time>
      </trkpt>
      <trkpt lat="50.62481" lon="2.54793">
        <ele>20.2</ele>
        <time>2025-11-06T18:09:22.968Z</time>
      </trkpt>
      <trkpt lat="50.62479" lon="2.54756">
        <ele>20.31</ele>
        <time>2025-11-06T18:09:23.960Z</time>
      </trkpt>
      <trkpt lat="50.6247" lon="2.54731">
        <ele>20.26</ele>
        <time>2025-11-06T18:09:24.955Z</time>
      </trkpt>
      <trkpt lat="50.62461" lon="2.54707">
        <ele>20.15</ele>
        <time>2025-11-06T18:09:25.953Z</time>
      </trkpt>
      <trkpt lat="50.62446" lon="2.54683">
        <ele>19.99</ele>
        <time>2025-11-06T18:09:26.955Z</time>
      </trkpt>
      <trkpt lat="50.62432" lon="2.54666">
        <ele>19.88</ele>
        <time>2025-11-06T18:09:27.959Z</time>
      </trkpt>
      <trkpt lat="50.62418" lon="2.54649">
        <ele>19.77</ele>
        <time>2025-11-06T18:09:28.966Z</time>
      </trkpt>
      <trkpt lat="50.62403" lon="2.5463">
        <ele>19.68</ele>
        <time>2025-11-06T18:09:29.976Z</time>
      </trkpt>
      <trkpt lat="50.62388" lon="2.5461">
        <ele>19.56</ele>
        <time>2025-11-06T18:09:30.989Z</time>
      </trkpt>
      <trkpt lat="50.62371" lon="2.54585">
        <ele>19.3</ele>
        <time>2025-11-06T18:09:32.006Z</time>
      </trkpt>
      <trkpt lat="50.62365" lon="2.5458">
        <ele>19.14</ele>
        <time>2025-11-06T18:09:33.024Z</time>
      </trkpt>
      <trkpt lat="50.6234" lon="2.54587">
        <ele>18.98</ele>
        <time>2025-11-06T18:09:34.046Z</time>
      </trkpt>
      <trkpt lat="50.62315" lon="2.54595">
        <ele>18.9</ele>
        <time>2025-11-06T18:09:35.072Z</time>
      </trkpt>
      <trkpt lat="50.6229" lon="2.54602">
        <ele>18.93</ele>
        <time>2025-11-06T18:09:36.103Z</time>
      </trkpt>
      <trkpt lat="50.62288" lon="2.54621">
        <ele>18.91</ele>
        <time>2025-11-06T18:09:37.136Z</time>
      </trkpt>
      <trkpt lat="50.62273" lon="2.54634">
        <ele>18.92</ele>
        <time>2025-11-06T18:09:38.171Z</time>
      </trkpt>
      <trkpt lat="50.62249" lon="2.54655">
        <ele>18.85</ele>
        <time>2025-11-06T18:09:39.211Z</time>
      </trkpt>
      <trkpt lat="50.6224" lon="2.54633">
        <ele>18.78</ele>
        <time>2025-11-06T18:09:40.253Z</time>
      </trkpt>
      <trkpt lat="50.62232" lon="2.5461">
        <ele>18.67</ele>
        <time>2025-11-06T18:09:41.298Z</time>
      </trkpt>
      <trkpt lat="50.62225" lon="2.54597">
        <ele>18.64</ele>
        <time>2025-11-06T18:09:42.345Z</time>
      </trkpt>
      <trkpt lat="50.6221" lon="2.54557">
        <ele>18.64</ele>
        <time>2025-11-06T18:09:43.396Z</time>
      </trkpt>
      <trkpt lat="50.62208" lon="2.54557">
        <ele>18.65</ele>
        <time>2025-11-06T18:09:44.448Z</time>
      </trkpt>
      <trkpt lat="50.62202" lon="2.54535">
        <ele>18.72</ele>
        <time>2025-11-06T18:09:45.502Z</time>
      </trkpt>
      <trkpt lat="50.62191" lon="2.54506">
        <ele>18.77</ele>
        <time>2025-11-06T18:09:46.560Z</time>
      </trkpt>
      <trkpt lat="50.6218" lon="2.54477">
        <ele>18.76</ele>
        <time>2025-11-06T18:09:47.621Z</time>
      </trkpt>
      <trkpt lat="50.6217" lon="2.5445">
        <ele>18.77</ele>
        <time>2025-11-06T18:09:48.685Z</time>
      </trkpt>
      <trkpt lat="50.62159" lon="2.54424">
        <ele>18.77</ele>
        <time>2025-11-06T18:09:49.753Z</time>
      </trkpt>
      <trkpt lat="50.62152" lon="2.54398">
        <ele>18.76</ele>
        <time>2025-11-06T18:09:50.823Z</time>
      </trkpt>
      <trkpt lat="50.62152" lon="2.54389">
        <ele>18.75</ele>
        <time>2025-11-06T18:09:51.894Z</time>
      </trkpt>
      <trkpt lat="50.62147" lon="2.54356">
        <ele>18.78</ele>
        <time>2025-11-06T18:09:52.969Z</time>
      </trkpt>
      <trkpt lat="50.62142" lon="2.54323">
        <ele>18.73</ele>
        <time>2025-11-06T18:09:54.047Z</time>
      </trkpt>
      <trkpt lat="50.62138" lon="2.54294">
        <ele>18.54</ele>
        <time>2025-11-06T18:09:55.128Z</time>
      </trkpt>
      <trkpt lat="50.62133" lon="2.54265">
        <ele>18.41</ele>
        <time>2025-11-06T18:09:56.212Z</time>
      </trkpt>
      <trkpt lat="50.62131" lon="2.5425">
        <ele>18.36</ele>
        <time>2025-11-06T18:09:57.298Z</time>
      </trkpt>
      <trkpt lat="50.62129" lon="2.54241">
        <ele>18.3</ele>
        <time>2025-11-06T18:09:58.385Z</time>
      </trkpt>
      <trkpt lat="50.62127" lon="2.5422">
        <ele>18.26</ele>
        <time>2025-11-06T18:09:59.474Z</time>
      </trkpt>
      <trkpt lat="50.62124" lon="2.54207">
        <ele>18.22</ele>
        <time>2025-11-06T18:10:00.564Z</time>
      </trkpt>
      <trkpt lat="50.62124" lon="2.54194">
        <ele>18.24</ele>
        <time>2025-11-06T18:10:01.656Z</time>
      </trkpt>
      <trkpt lat="50.62124" lon="2.54177">
        <ele>18.27</ele>
        <time>2025-11-06T18:10:02.749Z</time>
      </trkpt>
      <trkpt lat="50.62114" lon="2.5417">
        <ele>18.23</ele>
        <time>2025-11-06T18:10:03.844Z</time>
      </trkpt>
      <trkpt lat="50.62107" lon="2.54177">
        <ele>18.2</ele>
        <time>2025-11-06T18:10:04.940Z</time>
      </trkpt>
      <trkpt lat="50.62099" lon="2.54181">
        <ele>18.18</ele>
        <time>2025-11-06T18:10:06.038Z</time>
      </trkpt>
      <trkpt lat="50.62097" lon="2.54183">
        <ele>18.18</ele>
        <time>2025-11-06T18:10:07.136Z</time>
      </trkpt>
      <trkpt lat="50.62067" lon="2.54178">
        <ele>18.24</ele>
        <time>2025-11-06T18:10:08.239Z</time>
      </trkpt>
      <trkpt lat="50.62037" lon="2.54173">
        <ele>18.3</ele>
        <time>2025-11-06T18:10:09.347Z</time>
      </trkpt>
      <trkpt lat="50.62012" lon="2.54169">
        <ele>18.26</ele>
        <time>2025-11-06T18:10:10.459Z</time>
      </trkpt>
      <trkpt lat="50.61991" lon="2.54166">
        <ele>18.06</ele>
        <time>2025-11-06T18:10:11.574Z</time>
      </trkpt>
      <trkpt lat="50.61972" lon="2.5417">
        <ele>17.88</ele>
        <time>2025-11-06T18:10:12.692Z</time>
      </trkpt>
      <trkpt lat="50.61959" lon="2.54181">
        <ele>17.66</ele>
        <time>2025-11-06T18:10:13.813Z</time>
      </trkpt>
      <trkpt lat="50.61949" lon="2.54194">
        <ele>17.52</ele>
        <time>2025-11-06T18:10:14.936Z</time>
      </trkpt>
      <trkpt lat="50.61939" lon="2.54235">
        <ele>17.41</ele>
        <time>2025-11-06T18:10:16.063Z</time>
      </trkpt>
      <trkpt lat="50.6193" lon="2.54276">
        <ele>17.27</ele>
        <time>2025-11-06T18:10:17.195Z</time>
      </trkpt>
      <trkpt lat="50.61921" lon="2.54316">
        <ele>17.16</ele>
        <time>2025-11-06T18:10:18.331Z</time>
      </trkpt>
      <trkpt lat="50.61914" lon="2.54351">
        <ele>17.13</ele>
        <time>2025-11-06T18:10:19.471Z</time>
      </trkpt>
      <trkpt lat="50.61909" lon="2.54393">
        <ele>17.05</ele>
        <time>2025-11-06T18:10:20.615Z</time>
      </trkpt>
      <trkpt lat="50.61904" lon="2.54435">
        <ele>17.11</ele>
        <time>2025-11-06T18:10:21.764Z</time>
      </trkpt>
      <trkpt lat="50.61899" lon="2.54477">
        <ele>17.21</ele>
        <time>2025-11-06T18:10:22.917Z</time>
      </trkpt>
      <trkpt lat="50.61869" lon="2.54473">
        <ele>17.3</ele>
        <time>2025-11-06T18:10:24.075Z</time>
      </trkpt>
      <trkpt lat="50.61839" lon="2.54469">
        <ele>17.37</ele>
        <time>2025-11-06T18:10:25.238Z</time>
      </trkpt>
      <trkpt lat="50.61816" lon="2.54466">
        <ele>17.49</ele>
        <time>2025-11-06T18:10:26.404Z</time>
      </trkpt>
      <trkpt lat="50.61793" lon="2.54463">
        <ele>17.55</ele>
        <time>2025-11-06T18:10:27.574Z</time>
      </trkpt>
      <trkpt lat="50.6177" lon="2.5446">
        <ele>17.61</ele>
        <time>2025-11-06T18:10:28.748Z</time>
      </trkpt>
      <trkpt lat="50.61742" lon="2.54456">
        <ele>17.7</ele>
        <time>2025-11-06T18:10:29.926Z</time>
      </trkpt>
      <trkpt lat="50.61713" lon="2.54452">
        <ele>17.73</ele>
        <time>2025-11-06T18:10:31.109Z</time>
      </trkpt>
      <trkpt lat="50.61684" lon="2.54447">
        <ele>17.72</ele>
        <time>2025-11-06T18:10:32.296Z</time>
      </trkpt>
      <trkpt lat="50.61655" lon="2.54443">
        <ele>17.72</ele>
        <time>2025-11-06T18:10:33.488Z</time>
      </trkpt>
      <trkpt lat="50.61626" lon="2.54439">
        <ele>17.79</ele>
        <time>2025-11-06T18:10:34.685Z</time>
      </trkpt>
      <trkpt lat="50.61598" lon="2.54434">
        <ele>17.84</ele>
        <time>2025-11-06T18:10:35.886Z</time>
      </trkpt>
      <trkpt lat="50.61569" lon="2.5443">
        <ele>17.79</ele>
        <time>2025-11-06T18:10:37.092Z</time>
      </trkpt>
      <trkpt lat="50.61542" lon="2.54427">
        <ele>17.85</ele>
        <time>2025-11-06T18:10:38.302Z</time>
      </trkpt>
      <trkpt lat="50.61514" lon="2.54424">
        <ele>17.94</ele>
        <time>2025-11-06T18:10:39.517Z</time>
      </trkpt>
      <trkpt lat="50.61487" lon="2.54421">
        <ele>17.96</ele>
        <time>2025-11-06T18:10:40.736Z</time>
      </trkpt>
      <trkpt lat="50.61458" lon="2.54422">
        <ele>17.89</ele>
        <time>2025-11-06T18:10:41.960Z</time>
      </trkpt>
      <trkpt lat="50.61429" lon="2.54422">
        <ele>17.83</ele>
        <time>2025-11-06T18:10:43.188Z</time>
      </trkpt>
      <trkpt lat="50.614" lon="2.54423">
        <ele>17.77</ele>
        <time>2025-11-06T18:10:44.421Z</time>
      </trkpt>
      <trkpt lat="50.61371" lon="2.54423">
        <ele>17.67</ele>
        <time>2025-11-06T18:10:45.659Z</time>
      </trkpt>
      <trkpt lat="50.61342" lon="2.54423">
        <ele>17.62</ele>
        <time>2025-11-06T18:10:46.901Z</time>
      </trkpt>
      <trkpt lat="50.61313" lon="2.54424">
        <ele>17.57</ele>
        <time>2025-11-06T18:10:48.148Z</time>
      </trkpt>
      <trkpt lat="50.61284" lon="2.54424">
        <ele>17.53</ele>
        <time>2025-11-06T18:10:49.400Z</time>
      </trkpt>
      <trkpt lat="50.61255" lon="2.54425">
        <ele>17.54</ele>
        <time>2025-11-06T18:10:50.656Z</time>
      </trkpt>
      <trkpt lat="50.61226" lon="2.54425">
        <ele>17.5</ele>
        <time>2025-11-06T18:10:51.917Z</time>
      </trkpt>
      <trkpt lat="50.61197" lon="2.54425">
        <ele>17.46</ele>
        <time>2025-11-06T18:10:53.183Z</time>
      </trkpt>
      <trkpt lat="50.61167" lon="2.54426">
        <ele>17.44</ele>
        <time>2025-11-06T18:10:54.453Z</time>
      </trkpt>
      <trkpt lat="50.61148" lon="2.54429">
        <ele>17.34</ele>
        <time>2025-11-06T18:10:55.727Z</time>
      </trkpt>
      <trkpt lat="50.61128" lon="2.54432">
        <ele>17.29</ele>
        <time>2025-11-06T18:10:57.004Z</time>
      </trkpt>
      <trkpt lat="50.61128" lon="2.54432">
        <ele>17.26</ele>
        <time>2025-11-06T18:10:58.281Z</time>
      </trkpt>
      <trkpt lat="50.61102" lon="2.54437">
        <ele>17.26</ele>
        <time>2025-11-06T18:10:59.562Z</time>
      </trkpt>
      <trkpt lat="50.61075" lon="2.54441">
        <ele>17.21</ele>
        <time>2025-11-06T18:11:00.847Z</time>
      </trkpt>
      <trkpt lat="50.61051" lon="2.54448">
        <ele>17.2</ele>
        <time>2025-11-06T18:11:02.136Z</time>
      </trkpt>
      <trkpt lat="50.61027" lon="2.54455">
        <ele>17.2</ele>
        <time>2025-11-06T18:11:03.429Z</time>
      </trkpt>
      <trkpt lat="50.61002" lon="2.54462">
        <ele>17.22</ele>
        <time>2025-11-06T18:11:04.726Z</time>
      </trkpt>
      <trkpt lat="50.60974" lon="2.54475">
        <ele>17.18</ele>
        <time>2025-11-06T18:11:06.028Z</time>
      </trkpt>
      <trkpt lat="50.60946" lon="2.54488">
        <ele>17.19</ele>
        <time>2025-11-06T18:11:07.335Z</time>
      </trkpt>
      <trkpt lat="50.60917" lon="2.54501">
        <ele>17.26</ele>
        <time>2025-11-06T18:11:08.646Z</time>
      </trkpt>
      <trkpt lat="50.60889" lon="2.54514">
        <ele>17.26</ele>
        <time>2025-11-06T18:11:09.962Z</time>
      </trkpt>
      <trkpt lat="50.60861" lon="2.54527">
        <ele>17.24</ele>
        <time>2025-11-06T18:11:11.283Z</time>
      </trkpt>
      <trkpt lat="50.6085" lon="2.54531">
        <ele>17.2</ele>
        <time>2025-11-06T18:11:12.605Z</time>
      </trkpt>
      <trkpt lat="50.6085" lon="2.54531">
        <ele>17.2</ele>
        <time>2025-11-06T18:11:13.927Z</time>
      </trkpt>
      <trkpt lat="50.60819" lon="2.54541">
        <ele>17.16</ele>
        <time>2025-11-06T18:11:15.254Z</time>
      </trkpt>
      <trkpt lat="50.60789" lon="2.54552">
        <ele>17.16</ele>
        <time>2025-11-06T18:11:16.586Z</time>
      </trkpt>
      <trkpt lat="50.60758" lon="2.54562">
        <ele>17.18</ele>
        <time>2025-11-06T18:11:17.923Z</time>
      </trkpt>
      <trkpt lat="50.60728" lon="2.54572">
        <ele>17.1</ele>
        <time>2025-11-06T18:11:19.265Z</time>
      </trkpt>
      <trkpt lat="50.60698" lon="2.54582">
        <ele>17.2</ele>
        <time>2025-11-06T18:11:20.612Z</time>
      </trkpt>
      <trkpt lat="50.60667" lon="2.54593">
        <ele>17.24</ele>
        <time>2025-11-06T18:11:21.964Z</time>
      </trkpt>
      <trkpt lat="50.60637" lon="2.54603">
        <ele>17.29</ele>
        <time>2025-11-06T18:11:23.321Z</time>
      </trkpt>
      <trkpt lat="50.60606" lon="2.54613">
        <ele>17.31</ele>
        <time>2025-11-06T18:11:24.683Z</time>
      </trkpt>
      <trkpt lat="50.60576" lon="2.54624">
        <ele>17.36</ele>
        <time>2025-11-06T18:11:26.050Z</time>
      </trkpt>
      <trkpt lat="50.60545" lon="2.54634">
        <ele>17.42</ele>
        <time>2025-11-06T18:11:27.422Z</time>
      </trkpt>
      <trkpt lat="50.60522" lon="2.54638">
        <ele>17.48</ele>
        <time>2025-11-06T18:11:28.798Z</time>
      </trkpt>
      <trkpt lat="50.60503" lon="2.54627">
        <ele>17.58</ele>
        <time>2025-11-06T18:11:30.177Z</time>
      </trkpt>
      <trkpt lat="50.60485" lon="2.54617">
        <ele>17.62</ele>
        <time>2025-11-06T18:11:31.559Z</time>
      </trkpt>
      <trkpt lat="50.60472" lon="2.54617">
        <ele>17.65</ele>
        <time>2025-11-06T18:11:32.944Z</time>
      </trkpt>
      <trkpt lat="50.60443" lon="2.54626">
        <ele>17.6</ele>
        <time>2025-11-06T18:11:34.333Z</time>
      </trkpt>
      <trkpt lat="50.60415" lon="2.54636">
        <ele>17.63</ele>
        <time>2025-11-06T18:11:35.727Z</time>
      </trkpt>
      <trkpt lat="50.60386" lon="2.54645">
        <ele>17.7</ele>
        <time>2025-11-06T18:11:37.126Z</time>
      </trkpt>
      <trkpt lat="50.60357" lon="2.54655">
        <ele>17.74</ele>
        <time>2025-11-06T18:11:38.529Z</time>
      </trkpt>
      <trkpt lat="50.60328" lon="2.54664">
        <ele>17.67</ele>
        <time>2025-11-06T18:11:39.937Z</time>
      </trkpt>
      <trkpt lat="50.60303" lon="2.54664">
        <ele>17.64</ele>
        <time>2025-11-06T18:11:41.349Z</time>
      </trkpt>
      <trkpt lat="50.60303" lon="2.54664">
        <ele>17.59</ele>
        <time>2025-11-06T18:11:42.761Z</time>
      </trkpt>
      <trkpt lat="50.60294" lon="2.5466">
        <ele>17.53</ele>
        <time>2025-11-06T18:11:44.175Z</time>
      </trkpt>
      <trkpt lat="50.60277" lon="2.54662">
        <ele>17.46</ele>
        <time>2025-11-06T18:11:45.591Z</time>
      </trkpt>
      <trkpt lat="50.60248" lon="2.54679">
        <ele>17.34</ele>
        <time>2025-11-06T18:11:47.012Z</time>
      </trkpt>
      <trkpt lat="50.60218" lon="2.54696">
        <ele>17.23</ele>
        <time>2025-11-06T18:11:48.438Z</time>
      </trkpt>
      <trkpt lat="50.60189" lon="2.54713">
        <ele>17.14</ele>
        <time>2025-11-06T18:11:49.869Z</time>
      </trkpt>
      <trkpt lat="50.6016" lon="2.54728">
        <ele>17.1</ele>
        <time>2025-11-06T18:11:51.305Z</time>
      </trkpt>
      <trkpt lat="50.60131" lon="2.54743">
        <ele>17</ele>
        <time>2025-11-06T18:11:52.746Z</time>
      </trkpt>
      <trkpt lat="50.60103" lon="2.54758">
        <ele>16.96</ele>
        <time>2025-11-06T18:11:54.192Z</time>
      </trkpt>
      <trkpt lat="50.60074" lon="2.54773">
        <ele>16.99</ele>
        <time>2025-11-06T18:11:55.643Z</time>
      </trkpt>
      <trkpt lat="50.60045" lon="2.54788">
        <ele>17.02</ele>
        <time>2025-11-06T18:11:57.099Z</time>
      </trkpt>
      <trkpt lat="50.60017" lon="2.54801">
        <ele>17.03</ele>
        <time>2025-11-06T18:11:58.559Z</time>
      </trkpt>
      <trkpt lat="50.59988" lon="2.54813">
        <ele>17.05</ele>
        <time>2025-11-06T18:12:00.024Z</time>
      </trkpt>
      <trkpt lat="50.59959" lon="2.54825">
        <ele>17.1</ele>
        <time>2025-11-06T18:12:01.494Z</time>
      </trkpt>
      <trkpt lat="50.59931" lon="2.54837">
        <ele>17.21</ele>
        <time>2025-11-06T18:12:02.969Z</time>
      </trkpt>
      <trkpt lat="50.59902" lon="2.54849">
        <ele>17.29</ele>
        <time>2025-11-06T18:12:04.448Z</time>
      </trkpt>
      <trkpt lat="50.59874" lon="2.54861">
        <ele>17.3</ele>
        <time>2025-11-06T18:12:05.932Z</time>
      </trkpt>
      <trkpt lat="50.59873" lon="2.54862">
        <ele>17.36</ele>
        <time>2025-11-06T18:12:07.416Z</time>
      </trkpt>
      <trkpt lat="50.59842" lon="2.54872">
        <ele>17.52</ele>
        <time>2025-11-06T18:12:08.905Z</time>
      </trkpt>
      <trkpt lat="50.59812" lon="2.54881">
        <ele>17.6</ele>
        <time>2025-11-06T18:12:10.399Z</time>
      </trkpt>
      <trkpt lat="50.59781" lon="2.54891">
        <ele>17.66</ele>
        <time>2025-11-06T18:12:11.898Z</time>
      </trkpt>
      <trkpt lat="50.59775" lon="2.54852">
        <ele>17.72</ele>
        <time>2025-11-06T18:12:13.401Z</time>
      </trkpt>
      <trkpt lat="50.59769" lon="2.54812">
        <ele>17.78</ele>
        <time>2025-11-06T18:12:14.909Z</time>
      </trkpt>
      <trkpt lat="50.59764" lon="2.54772">
        <ele>17.84</ele>
        <time>2025-11-06T18:12:16.421Z</time>
      </trkpt>
      <trkpt lat="50.59758" lon="2.54733">
        <ele>17.89</ele>
        <time>2025-11-06T18:12:17.937Z</time>
      </trkpt>
      <trkpt lat="50.59756" lon="2.54705">
        <ele>17.86</ele>
        <time>2025-11-06T18:12:19.456Z</time>
      </trkpt>
      <trkpt lat="50.59754" lon="2.54657">
        <ele>17.86</ele>
        <time>2025-11-06T18:12:20.980Z</time>
      </trkpt>
      <trkpt lat="50.59753" lon="2.5461">
        <ele>17.79</ele>
        <time>2025-11-06T18:12:22.508Z</time>
      </trkpt>
      <trkpt lat="50.59756" lon="2.54564">
        <ele>17.93</ele>
        <time>2025-11-06T18:12:24.041Z</time>
      </trkpt>
      <trkpt lat="50.59756" lon="2.54564">
        <ele>18.03</ele>
        <time>2025-11-06T18:12:25.574Z</time>
      </trkpt>
      <trkpt lat="50.59758" lon="2.54527">
        <ele>18.25</ele>
        <time>2025-11-06T18:12:27.111Z</time>
      </trkpt>
      <trkpt lat="50.59757" lon="2.545">
        <ele>18.43</ele>
        <time>2025-11-06T18:12:28.651Z</time>
      </trkpt>
      <trkpt lat="50.59756" lon="2.54473">
        <ele>18.6</ele>
        <time>2025-11-06T18:12:30.193Z</time>
      </trkpt>
      <trkpt lat="50.59752" lon="2.54435">
        <ele>18.68</ele>
        <time>2025-11-06T18:12:31.739Z</time>
      </trkpt>
      <trkpt lat="50.59749" lon="2.54398">
        <ele>18.75</ele>
        <time>2025-11-06T18:12:33.289Z</time>
      </trkpt>
      <trkpt lat="50.59741" lon="2.54361">
        <ele>18.82</ele>
        <time>2025-11-06T18:12:34.843Z</time>
      </trkpt>
      <trkpt lat="50.59733" lon="2.54323">
        <ele>18.86</ele>
        <time>2025-11-06T18:12:36.401Z</time>
      </trkpt>
      <trkpt lat="50.59726" lon="2.54286">
        <ele>18.83</ele>
        <time>2025-11-06T18:12:37.963Z</time>
      </trkpt>
      <trkpt lat="50.59722" lon="2.54237">
        <ele>18.86</ele>
        <time>2025-11-06T18:12:39.530Z</time>
      </trkpt>
      <trkpt lat="50.59718" lon="2.54189">
        <ele>19.04</ele>
        <time>2025-11-06T18:12:41.102Z</time>
      </trkpt>
      <trkpt lat="50.59718" lon="2.54189">
        <ele>19.24</ele>
        <time>2025-11-06T18:12:42.674Z</time>
      </trkpt>
      <trkpt lat="50.59715" lon="2.54149">
        <ele>19.58</ele>
        <time>2025-11-06T18:12:44.250Z</time>
      </trkpt>
      <trkpt lat="50.59712" lon="2.5411">
        <ele>19.91</ele>
        <time>2025-11-06T18:12:45.830Z</time>
      </trkpt>
      <trkpt lat="50.59709" lon="2.5407">
        <ele>20.2</ele>
        <time>2025-11-06T18:12:47.414Z</time>
      </trkpt>
      <trkpt lat="50.59706" lon="2.54031">
        <ele>20.34</ele>
        <time>2025-11-06T18:12:49.002Z</time>
      </trkpt>
      <trkpt lat="50.59706" lon="2.5399">
        <ele>20.4</ele>
        <time>2025-11-06T18:12:50.595Z</time>
      </trkpt>
      <trkpt lat="50.59706" lon="2.53949">
        <ele>20.38</ele>
        <time>2025-11-06T18:12:52.192Z</time>
      </trkpt>
      <trkpt lat="50.59706" lon="2.53909">
        <ele>20.5</ele>
        <time>2025-11-06T18:12:53.793Z</time>
      </trkpt>
      <trkpt lat="50.59706" lon="2.53909">
        <ele>20.57</ele>
        <time>2025-11-06T18:12:55.394Z</time>
      </trkpt>
      <trkpt lat="50.59704" lon="2.53883">
        <ele>20.66</ele>
        <time>2025-11-06T18:12:56.997Z</time>
      </trkpt>
      <trkpt lat="50.59702" lon="2.53857">
        <ele>20.65</ele>
        <time>2025-11-06T18:12:58.603Z</time>
      </trkpt>
      <trkpt lat="50.59699" lon="2.53828">
        <ele>20.61</ele>
        <time>2025-11-06T18:13:00.212Z</time>
      </trkpt>
      <trkpt lat="50.59695" lon="2.53799">
        <ele>20.52</ele>
        <time>2025-11-06T18:13:01.824Z</time>
      </trkpt>
      <trkpt lat="50.59689" lon="2.53774">
        <ele>20.4</ele>
        <time>2025-11-06T18:13:03.439Z</time>
      </trkpt>
      <trkpt lat="50.59683" lon="2.5375">
        <ele>20.25</ele>
        <time>2025-11-06T18:13:05.057Z</time>
      </trkpt>
      <trkpt lat="50.59671" lon="2.53725">
        <ele>20.13</ele>
        <time>2025-11-06T18:13:06.678Z</time>
      </trkpt>
      <trkpt lat="50.59659" lon="2.537">
        <ele>20.16</ele>
        <time>2025-11-06T18:13:08.302Z</time>
      </trkpt>
      <trkpt lat="50.59653" lon="2.53692">
        <ele>20.27</ele>
        <time>2025-11-06T18:13:09.927Z</time>
      </trkpt>
      <trkpt lat="50.59644" lon="2.53692">
        <ele>20.45</ele>
        <time>2025-11-06T18:13:11.554Z</time>
      </trkpt>
      <trkpt lat="50.59625" lon="2.53709">
        <ele>20.67</ele>
        <time>2025-11-06T18:13:13.184Z</time>
      </trkpt>
      <trkpt lat="50.59605" lon="2.53735">
        <ele>20.67</ele>
        <time>2025-11-06T18:13:14.818Z</time>
      </trkpt>
      <trkpt lat="50.59586" lon="2.53761">
        <ele>20.51</ele>
        <time>2025-11-06T18:13:16.456Z</time>
      </trkpt>
      <trkpt lat="50.59577" lon="2.53771">
        <ele>20.49</ele>
        <time>2025-11-06T18:13:18.096Z</time>
      </trkpt>
      <trkpt lat="50.59571" lon="2.5378">
        <ele>20.59</ele>
        <time>2025-11-06T18:13:19.737Z</time>
      </trkpt>
      <trkpt lat="50.59556" lon="2.53799">
        <ele>20.71</ele>
        <time>2025-11-06T18:13:21.381Z</time>
      </trkpt>
      <trkpt lat="50.5955" lon="2.53802">
        <ele>20.71</ele>
        <time>2025-11-06T18:13:23.026Z</time>
      </trkpt>
    </trkseg>
  </trk>
</gpx>